Heiner, Kentucky
Current Conditions -  °F | °C
As of 2:53 AM on Thursday 27 Nov 2014 (Local Time) from KJKL Reporting Station
Overcast Overcast  
Wind Chill: 35°   Ceiling: 7000
Heat Index: 35°   Visibility: 10mi
Dew Point: 28°   Wind: 0mph
Humidity: 76%   Direction: NA
Pressure: 29.99"   Gusts: NA
Location:  37.3318°N, 83.1697°W
Report Text: KJKL 270753Z AUTO 00000KT 10SM OVC070 02/M02 A2999 RMK AO2 SLP158 T00171022
Loading
Personal Weather Stations






























Interactive Weather Map New forecast layout! Learn more

10-Day Weather Forecast

Advertisements
Track Severe Weather on mobile